Time;durP1;ratioP1;P1;durP2;ratioP2;P2;SDS_P1;SDS_P2;PMS_P1;PMS_P2;Temp;Humidity;BMP_temperature;BMP_pressure;BME280_temperature;BME280_humidity;BME280_pressure;Samples;Min_cycle;Max_cycle;Signal;HPM_P1;HPM_P2
2024/03/03 00:01:32;;;;;;;;;73.60;57.00;;;;;12.63;100.00;98167.09;5996521;29;96925;-57
2024/03/03 00:04:35;;;;;;;;;71.00;53.00;;;;;12.58;100.00;98158.94;5996228;29;96503;-58
2024/03/03 00:07:38;;;;;;;;;71.00;54.00;;;;;12.59;100.00;98150.59;5996971;29;96388;-57
2024/03/03 00:10:41;;;;;;;;;70.40;53.80;;;;;12.57;100.00;98155.41;5997081;29;96460;-57
2024/03/03 00:13:46;;;;;;;;;69.40;52.60;;;;;12.51;100.00;98145.59;5996857;29;97004;-57
2024/03/03 00:16:49;;;;;;;;;69.60;55.60;;;;;12.57;100.00;98154.59;5996715;29;96523;-58
2024/03/03 00:19:52;;;;;;;;;72.60;55.40;;;;;12.57;100.00;98144.59;5996678;29;96333;-57
2024/03/03 00:22:55;;;;;;;;;67.00;52.00;;;;;12.51;100.00;98144.81;6068155;23;97687;-55
2024/03/03 00:25:58;;;;;;;;;70.00;53.00;;;;;12.52;100.00;98143.72;6027562;28;96309;-56
2024/03/03 00:29:04;;;;;;;;;65.60;51.60;;;;;12.53;100.00;98151.59;6033826;28;96637;-57
2024/03/03 00:32:07;;;;;;;;;70.00;53.80;;;;;12.50;100.00;98154.81;6019180;28;96343;-58
2024/03/03 00:35:10;;;;;;;;;70.20;53.60;;;;;12.46;100.00;98145.53;6028553;28;96315;-55
2024/03/03 00:38:14;;;;;;;;;67.25;52.00;;;;;12.31;100.00;98123.75;6018003;28;98626;-56
2024/03/03 00:41:17;;;;;;;;;68.33;53.00;;;;;12.29;100.00;98133.16;6027176;28;96821;-56
2024/03/03 00:44:21;;;;;;;;;63.00;50.60;;;;;12.41;100.00;98155.50;6029882;28;96728;-57
2024/03/03 00:47:24;;;;;;;;;72.00;55.00;;;;;12.39;100.00;98144.94;6036469;28;96442;-56
2024/03/03 00:50:27;;;;;;;;;71.25;55.50;;;;;12.37;100.00;98144.34;6043535;28;96462;-56
2024/03/03 00:53:30;;;;;;;;;70.20;54.00;;;;;12.32;100.00;98149.69;6015501;28;96391;-56
2024/03/03 00:56:33;;;;;;;;;68.40;52.40;;;;;12.29;100.00;98152.06;6025268;28;96302;-56
2024/03/03 00:59:59;;;;;;;;;66.60;51.60;;;;;12.09;100.00;98147.22;6012394;28;97540;-56
2024/03/03 01:03:02;;;;;;;;;68.00;52.80;;;;;11.84;100.00;98149.56;6011803;28;96617;-56
2024/03/03 01:06:06;;;;;;;;;70.00;53.00;;;;;11.73;100.00;98154.78;6060324;23;98322;-57
2024/03/03 01:09:09;;;;;;;;;67.00;52.20;;;;;11.75;100.00;98145.63;6003696;28;97044;-57
2024/03/03 01:12:12;;;;;;;;;69.60;53.40;;;;;11.57;100.00;98122.41;6018870;28;96449;-57
2024/03/03 01:15:17;;;;;;;;;70.00;52.67;;;;;11.69;100.00;98142.00;6088700;23;96261;-56
2024/03/03 01:18:20;;;;;;;;;65.20;51.00;;;;;11.77;100.00;98149.75;6027340;28;96349;-57
2024/03/03 01:21:23;;;;;;;;;70.60;53.60;;;;;11.75;100.00;98146.47;6002918;28;96922;-56
2024/03/03 01:24:26;;;;;;;;;68.20;53.00;;;;;11.71;100.00;98132.59;5987923;28;98383;-57
2024/03/03 01:27:30;;;;;;;;;69.00;52.40;;;;;11.83;100.00;98143.31;6004054;28;96298;-57
2024/03/03 01:30:34;;;;;;;;;68.20;53.20;;;;;11.87;100.00;98140.97;5995558;28;96465;-55
2024/03/03 01:33:37;;;;;;;;;67.00;53.00;;;;;11.82;100.00;98130.91;5951248;29;96474;-56
2024/03/03 01:36:40;;;;;;;;;68.80;52.60;;;;;11.92;100.00;98131.06;5949993;29;96322;-56
2024/03/03 01:39:43;;;;;;;;;67.20;51.80;;;;;11.92;100.00;98133.75;5950226;29;96598;-56
2024/03/03 01:42:47;;;;;;;;;67.00;52.00;;;;;11.87;100.00;98122.88;5950059;29;96410;-56
2024/03/03 01:45:51;;;;;;;;;66.80;52.00;;;;;11.74;100.00;98117.81;5958200;29;96460;-56
2024/03/03 01:48:54;;;;;;;;;69.75;53.50;;;;;11.73;100.00;98121.56;5973390;29;97421;-56
2024/03/03 01:51:58;;;;;;;;;72.00;54.60;;;;;11.75;100.00;98121.34;5972912;29;96722;-56
2024/03/03 01:55:02;;;;;;;;;67.00;53.00;;;;;11.73;100.00;98118.09;5972986;29;96393;-56
2024/03/03 01:58:07;;;;;;;;;69.40;52.00;;;;;11.73;100.00;98122.41;5984846;29;96396;-56
2024/03/03 02:01:13;;;;;;;;;66.40;52.00;;;;;11.73;100.00;98120.78;5996439;29;96712;-56
2024/03/03 02:04:16;;;;;;;;;69.00;53.00;;;;;11.71;100.00;98124.50;5978459;29;96332;-56
2024/03/03 02:07:21;;;;;;;;;68.20;53.20;;;;;11.71;100.00;98129.09;5985770;29;97018;-56
2024/03/03 02:10:26;;;;;;;;;70.40;53.00;;;;;11.70;100.00;98120.16;5994300;29;96583;-56
2024/03/03 02:13:30;;;;;;;;;72.00;53.60;;;;;11.69;100.00;98118.53;5986704;29;96565;-56
2024/03/03 02:16:35;;;;;;;;;67.00;51.00;;;;;11.58;100.00;98108.63;5952918;29;97950;-57
2024/03/03 02:19:38;;;;;;;;;66.25;51.50;;;;;11.63;100.00;98114.09;5952657;29;96922;-56
2024/03/03 02:22:43;;;;;;;;;67.00;51.00;;;;;11.59;100.00;98121.06;5952931;29;96680;-56
2024/03/03 02:25:46;;;;;;;;;67.00;52.00;;;;;11.57;100.00;98112.41;5965554;29;96616;-56
2024/03/03 02:28:51;;;;;;;;;67.80;52.20;;;;;11.52;100.00;98114.22;5966369;29;97865;-56
2024/03/03 02:31:54;;;;;;;;;67.80;53.00;;;;;11.50;100.00;98113.63;5953167;29;96575;-55
2024/03/03 02:34:58;;;;;;;;;66.80;52.20;;;;;11.47;100.00;98108.75;5960621;29;96922;-55
2024/03/03 02:38:02;;;;;;;;;67.80;52.80;;;;;11.40;100.00;98114.28;5962096;29;97891;-56
2024/03/03 02:41:05;;;;;;;;;67.40;52.80;;;;;11.34;100.00;98109.88;5960015;29;96976;-56
2024/03/03 02:44:08;;;;;;;;;69.80;53.20;;;;;11.24;100.00;98107.00;5940560;29;96828;-55
2024/03/03 02:47:12;;;;;;;;;69.40;52.00;;;;;11.22;100.00;98103.75;5977726;29;96511;-55
2024/03/03 02:50:15;;;;;;;;;65.80;52.00;;;;;11.18;100.00;98110.69;5954007;29;96433;-56
2024/03/03 02:53:20;;;;;;;;;68.40;54.80;;;;;11.04;100.00;98088.63;5949915;29;96399;-55
2024/03/03 02:56:23;;;;;;;;;66.00;51.00;;;;;10.98;100.00;98076.09;5961533;29;96343;-56
2024/03/03 02:59:26;;;;;;;;;67.00;52.00;;;;;11.13;100.00;98110.63;5967031;29;96458;-55
2024/03/03 03:02:29;;;;;;;;;66.00;51.00;;;;;11.08;100.00;98105.94;5965269;29;96756;-55
2024/03/03 03:05:32;;;;;;;;;67.00;52.00;;;;;11.03;100.00;98105.88;5952583;29;96725;-55
2024/03/03 03:08:37;;;;;;;;;69.00;53.00;;;;;10.98;100.00;98104.94;5954108;29;97258;-56
2024/03/03 03:11:40;;;;;;;;;69.00;51.50;;;;;11.02;100.00;98116.88;5966087;29;96484;-56
2024/03/03 03:14:44;;;;;;;;;70.75;54.25;;;;;11.01;100.00;98115.25;5963447;29;98048;-55
2024/03/03 03:17:47;;;;;;;;;68.75;54.25;;;;;10.98;100.00;98113.03;5972229;29;96547;-56
2024/03/03 03:20:50;;;;;;;;;69.60;53.60;;;;;10.96;100.00;98099.78;5943719;29;97226;-56
2024/03/03 03:23:55;;;;;;;;;67.40;53.00;;;;;10.97;100.00;98112.22;5952287;29;96317;-56
2024/03/03 03:26:58;;;;;;;;;70.00;53.00;;;;;10.96;100.00;98105.19;5966448;29;97042;-56
2024/03/03 03:30:02;;;;;;;;;70.50;53.00;;;;;10.95;100.00;98106.25;5952942;29;96310;-55
2024/03/03 03:33:06;;;;;;;;;71.00;55.20;;;;;10.86;100.00;98110.41;5952045;29;96937;-55
2024/03/03 03:36:10;;;;;;;;;68.60;52.60;;;;;10.81;100.00;98113.81;5963046;29;96493;-56
2024/03/03 03:39:15;;;;;;;;;70.00;53.00;;;;;10.76;100.00;98129.09;5951856;29;96322;-56
2024/03/03 03:42:18;;;;;;;;;68.40;53.00;;;;;10.72;100.00;98130.63;5957773;29;96607;-55
2024/03/03 03:45:22;;;;;;;;;66.50;52.00;;;;;10.71;100.00;98123.59;5986718;29;96917;-57
2024/03/03 03:48:25;;;;;;;;;67.40;52.00;;;;;10.70;100.00;98122.78;5965725;29;96431;-56
2024/03/03 03:51:28;;;;;;;;;72.00;54.00;;;;;10.69;100.00;98112.25;5973836;29;97097;-56
2024/03/03 03:54:32;;;;;;;;;72.50;56.50;;;;;10.72;100.00;98114.44;5961205;29;98182;-58
2024/03/03 03:57:35;;;;;;;;;67.00;52.40;;;;;10.80;100.00;98114.06;5973862;29;96362;-57
2024/03/03 04:00:39;;;;;;;;;70.00;51.00;;;;;10.84;100.00;98118.75;5950093;29;97628;-58
2024/03/03 04:03:42;;;;;;;;;68.00;52.60;;;;;10.89;100.00;98111.81;5950229;29;96607;-58
2024/03/03 04:06:45;;;;;;;;;69.40;53.40;;;;;10.81;100.00;98103.03;5952834;29;96714;-58
2024/03/03 04:09:50;;;;;;;;;69.50;53.00;;;;;11.00;100.00;98113.59;5974480;29;96417;-57
2024/03/03 04:12:53;;;;;;;;;68.00;51.80;;;;;10.97;100.00;98117.63;5974381;29;96559;-57
2024/03/03 04:15:57;;;;;;;;;72.00;55.00;;;;;10.95;100.00;98125.13;5971294;29;98532;-57
2024/03/03 04:19:00;;;;;;;;;70.50;52.00;;;;;10.94;100.00;98122.69;5973071;29;96504;-57
2024/03/03 04:22:03;;;;;;;;;70.00;54.60;;;;;10.89;100.00;98114.50;5974198;29;96854;-57
2024/03/03 04:25:08;;;;;;;;;69.25;53.25;;;;;10.62;100.00;98101.59;5989982;29;96916;-57
2024/03/03 04:28:12;;;;;;;;;69.00;53.40;;;;;10.58;100.00;98116.63;5997476;29;96555;-58
2024/03/03 04:31:15;;;;;;;;;67.40;52.60;;;;;10.57;100.00;98125.75;5974057;29;96716;-57
2024/03/03 04:34:18;;;;;;;;;66.40;50.80;;;;;10.56;100.00;98117.91;5975490;29;96372;-57
2024/03/03 04:37:22;;;;;;;;;68.00;52.00;;;;;10.55;100.00;98111.72;5997236;29;97185;-57
2024/03/03 04:40:26;;;;;;;;;68.00;52.20;;;;;10.56;100.00;98117.91;5997026;29;96401;-56
2024/03/03 04:43:29;;;;;;;;;70.00;54.60;;;;;10.53;100.00;98104.94;5996909;29;96424;-57
2024/03/03 04:46:32;;;;;;;;;67.00;52.00;;;;;10.57;100.00;98114.97;5989855;29;96296;-57
2024/03/03 04:49:36;;;;;;;;;68.60;51.00;;;;;10.54;100.00;98112.78;5995447;29;98185;-57
2024/03/03 04:52:39;;;;;;;;;66.33;50.33;;;;;10.49;100.00;98115.38;5973482;29;96633;-57
2024/03/03 04:55:44;;;;;;;;;66.80;51.00;;;;;10.43;100.00;98109.06;5975681;29;96391;-58
2024/03/03 04:58:47;;;;;;;;;66.25;51.00;;;;;10.38;100.00;98114.34;5963823;29;97725;-57
2024/03/03 05:01:50;;;;;;;;;65.60;50.00;;;;;10.36;100.00;98113.75;5983309;29;97521;-56
2024/03/03 05:04:53;;;;;;;;;64.50;50.00;;;;;10.39;100.00;98115.16;5992518;29;96174;-56
2024/03/03 05:07:56;;;;;;;;;67.00;51.00;;;;;10.28;100.00;98097.16;5973367;29;96611;-56
2024/03/03 05:11:01;;;;;;;;;67.40;50.00;;;;;10.43;100.00;98117.16;5974316;29;97043;-56
2024/03/03 05:14:04;;;;;;;;;65.00;51.00;;;;;10.48;100.00;98112.91;5970656;29;96729;-56
2024/03/03 05:17:07;;;;;;;;;67.00;49.75;;;;;10.51;100.00;98112.41;5972614;29;96479;-56
2024/03/03 05:20:11;;;;;;;;;65.00;50.00;;;;;10.51;100.00;98115.13;5971842;29;97515;-55
2024/03/03 05:23:14;;;;;;;;;64.00;48.00;;;;;10.54;100.00;98118.16;5971304;29;96316;-57
2024/03/03 05:26:19;;;;;;;;;64.20;49.00;;;;;10.54;100.00;98118.16;5967851;29;98393;-56
2024/03/03 05:29:22;;;;;;;;;66.75;50.75;;;;;10.53;100.00;98116.53;5972009;29;96576;-56
2024/03/03 05:32:25;;;;;;;;;63.80;49.60;;;;;10.53;100.00;98115.69;5973641;29;96735;-56
2024/03/03 05:35:28;;;;;;;;;66.00;51.00;;;;;10.58;100.00;98116.63;5968978;29;98332;-56
2024/03/03 05:38:31;;;;;;;;;66.00;50.60;;;;;10.62;100.00;98122.34;5971214;29;96361;-56
2024/03/03 05:41:36;;;;;;;;;63.60;49.40;;;;;10.64;100.00;98126.44;5969823;29;96540;-56
2024/03/03 05:44:39;;;;;;;;;63.00;49.00;;;;;10.74;100.00;98123.13;5961489;29;96557;-56
2024/03/03 05:47:42;;;;;;;;;65.50;49.00;;;;;10.77;100.00;98112.66;5951390;29;97488;-56
2024/03/03 05:50:45;;;;;;;;;62.80;49.00;;;;;10.75;100.00;98090.50;5963994;29;96440;-56
2024/03/03 05:53:49;;;;;;;;;65.40;51.00;;;;;11.03;100.00;98110.44;5977279;29;96582;-56
2024/03/03 05:56:53;;;;;;;;;67.00;51.00;;;;;11.10;100.00;98116.47;5970847;29;96654;-56
2024/03/03 05:59:56;;;;;;;;;65.20;50.00;;;;;11.10;100.00;98125.38;5968966;29;96343;-56
2024/03/03 06:02:59;;;;;;;;;65.40;51.00;;;;;11.08;100.00;98116.75;5970530;29;96979;-56
2024/03/03 06:06:04;;;;;;;;;63.25;50.00;;;;;11.05;100.00;98117.22;5969408;29;96746;-56
2024/03/03 06:09:10;;;;;;;;;62.25;49.00;;;;;10.98;100.00;98119.25;5967978;29;97224;-56
2024/03/03 06:12:15;;;;;;;;;60.40;47.20;;;;;10.99;100.00;98123.59;5969882;29;96331;-57
2024/03/03 06:15:18;;;;;;;;;65.25;50.00;;;;;11.02;100.00;98125.81;5971972;29;96452;-57
2024/03/03 06:18:22;;;;;;;;;68.80;51.40;;;;;11.05;100.00;98122.59;5972578;29;97759;-57
2024/03/03 06:21:25;;;;;;;;;59.80;47.00;;;;;11.12;100.00;98123.28;5972733;29;96375;-57
2024/03/03 06:24:28;;;;;;;;;62.40;48.80;;;;;11.36;100.00;98132.03;5972685;29;96405;-57
2024/03/03 06:27:33;;;;;;;;;60.25;48.00;;;;;11.59;100.00;98131.03;5972424;29;96276;-57
2024/03/03 06:30:36;;;;;;;;;58.00;45.33;;;;;11.70;100.00;98132.84;5971013;29;98707;-58
2024/03/03 06:33:39;;;;;;;;;60.75;47.00;;;;;11.90;100.00;98137.75;5972420;29;96273;-58
2024/03/03 06:36:42;;;;;;;;;60.80;46.80;;;;;11.96;100.00;98134.91;5972413;29;96316;-57
2024/03/03 06:39:46;;;;;;;;;57.80;46.00;;;;;12.19;100.00;98130.31;5972496;29;96839;-57
2024/03/03 06:42:50;;;;;;;;;57.75;45.50;;;;;12.55;100.00;98124.31;5972482;29;97100;-57
2024/03/03 06:45:53;;;;;;;;;57.20;44.40;;;;;12.97;100.00;98119.06;5971178;29;96974;-57
2024/03/03 06:48:57;;;;;;;;;59.00;45.80;;;;;13.51;100.00;98116.31;5968835;29;99322;-57
2024/03/03 06:52:00;;;;;;;;;56.75;44.75;;;;;14.54;100.00;98125.63;5980622;29;96393;-57
2024/03/03 06:55:03;;;;;;;;;53.00;43.00;;;;;15.79;100.00;98126.91;5982730;29;97768;-58
2024/03/03 06:58:08;;;;;;;;;52.00;42.00;;;;;17.61;100.00;98125.28;5973730;29;96377;-59
2024/03/03 07:01:11;;;;;;;;;55.50;44.00;;;;;19.37;100.00;98130.56;5979722;29;96663;-58
2024/03/03 07:04:20;;;;;;;;;55.00;44.40;;;;;20.85;100.00;98128.72;5980815;29;96627;-59
2024/03/03 07:07:24;;;;;;;;;55.00;42.00;;;;;21.71;100.00;98126.75;5979341;29;96924;-58
2024/03/03 07:10:27;;;;;;;;;50.00;42.00;;;;;23.25;100.00;98132.13;5987216;29;96858;-58
2024/03/03 07:13:32;;;;;;;;;53.40;42.40;;;;;24.88;100.00;98122.69;5986090;29;97570;-58
2024/03/03 07:16:35;;;;;;;;;54.00;40.00;;;;;25.98;100.00;98127.69;5971250;29;96537;-58
2024/03/03 07:19:38;;;;;;;;;52.00;41.80;;;;;26.95;100.00;98129.78;5956066;29;96837;-58
2024/03/03 07:22:41;;;;;;;;;52.00;41.20;;;;;27.36;100.00;98114.84;5971982;29;96886;-59
2024/03/03 07:25:44;;;;;;;;;50.00;40.00;;;;;28.12;100.00;98130.50;5972629;29;96924;-58
2024/03/03 07:28:50;;;;;;;;;50.40;40.00;;;;;29.07;94.65;98127.41;5973604;29;96676;-58
2024/03/03 07:31:54;;;;;;;;;53.00;40.60;;;;;30.03;90.09;98119.16;5973149;29;96722;-58
2024/03/03 07:34:57;;;;;;;;;50.60;40.60;;;;;31.02;83.21;98125.69;5966692;29;96986;-58
2024/03/03 07:38:00;;;;;;;;;51.00;41.80;;;;;32.27;79.70;98126.09;5970475;29;96959;-59
2024/03/03 07:41:03;;;;;;;;;49.80;41.40;;;;;32.86;74.49;98125.06;5963932;29;96413;-59
2024/03/03 07:44:07;;;;;;;;;53.00;42.00;;;;;33.01;62.88;98123.97;5974350;29;96351;-59
2024/03/03 07:47:11;;;;;;;;;56.40;44.00;;;;;33.39;68.47;98131.03;5958212;29;98821;-59
2024/03/03 07:50:14;;;;;;;;;50.00;41.00;;;;;34.08;65.73;98124.56;5974743;29;96819;-58
2024/03/03 07:53:18;;;;;;;;;52.00;41.00;;;;;34.98;64.51;98127.09;5975166;29;96613;-58
2024/03/03 07:56:21;;;;;;;;;52.40;42.00;;;;;35.59;62.14;98126.56;5972932;29;96595;-59
2024/03/03 07:59:26;;;;;;;;;48.00;40.00;;;;;36.24;58.36;98124.31;5972616;29;97032;-59
2024/03/03 08:02:29;;;;;;;;;50.00;40.00;;;;;36.84;56.44;98113.47;5972505;29;96419;-59
2024/03/03 08:05:33;;;;;;;;;49.40;42.00;;;;;37.18;54.91;98124.81;5971123;29;96670;-59
2024/03/03 08:08:36;;;;;;;;;45.00;37.75;;;;;37.23;54.04;98123.56;5971241;29;97383;-61
2024/03/03 08:11:39;;;;;;;;;48.00;39.00;;;;;37.85;50.44;98128.88;5972407;29;96223;-58
2024/03/03 08:14:44;;;;;;;;;48.00;39.00;;;;;38.27;50.18;98126.75;5956507;29;96844;-61
2024/03/03 08:17:47;;;;;;;;;49.00;39.00;;;;;39.21;48.94;98126.44;5956376;29;96967;-61
2024/03/03 08:20:50;;;;;;;;;47.00;38.20;;;;;40.58;45.65;98121.16;5972328;29;96749;-60
2024/03/03 08:23:53;;;;;;;;;41.00;36.00;;;;;41.81;43.09;98119.97;5972859;29;97592;-59
2024/03/03 08:26:57;;;;;;;;;43.40;35.00;;;;;42.50;38.36;98114.66;5971755;29;96332;-59
2024/03/03 08:30:05;;;;;;;;;43.00;35.00;;;;;43.54;39.99;98109.91;5976795;29;96961;-59
2024/03/03 08:33:08;;;;;;;;;43.40;35.00;;;;;44.83;38.89;98095.94;5963914;29;96800;-60
2024/03/03 08:36:11;;;;;;;;;39.80;34.60;;;;;45.88;35.89;98106.75;5975467;29;96603;-59
2024/03/03 08:39:16;;;;;;;;;40.50;34.50;;;;;46.92;36.30;98084.19;5972768;29;96818;-59
2024/03/03 08:42:19;;;;;;;;;39.00;33.00;;;;;47.42;31.06;98083.66;5967698;29;97133;-59
2024/03/03 08:45:26;;;;;;;;;38.00;33.00;;;;;47.77;30.70;98078.91;5972222;29;96426;-60
2024/03/03 08:48:29;;;;;;;;;37.00;31.40;;;;;48.48;32.10;98077.78;5969447;29;97108;-60
2024/03/03 08:51:37;;;;;;;;;31.40;30.00;;;;;49.10;31.60;98076.59;5969072;29;97743;-59
2024/03/03 08:54:40;;;;;;;;;32.60;31.00;;;;;49.35;28.86;98068.06;5970664;29;96636;-60
2024/03/03 08:57:44;;;;;;;;;36.50;31.75;;;;;49.43;31.08;98071.28;5970519;29;97357;-60
2024/03/03 09:00:49;;;;;;;;;38.00;33.00;;;;;50.15;31.29;98080.63;5968689;29;97223;-59
2024/03/03 09:03:53;;;;;;;;;36.00;32.00;;;;;50.52;29.30;98074.16;5970314;29;98190;-60
2024/03/03 09:06:56;;;;;;;;;35.00;32.00;;;;;50.90;29.09;98067.06;5972457;29;97119;-59
2024/03/03 09:09:59;;;;;;;;;31.00;28.00;;;;;50.92;26.11;98064.47;5953770;29;96530;-60
2024/03/03 09:13:02;;;;;;;;;26.00;25.60;;;;;50.15;26.06;98065.50;5969890;29;97922;-59
2024/03/03 09:16:09;;;;;;;;;35.80;31.80;;;;;48.99;28.33;98045.72;5968355;29;96842;-60
2024/03/03 09:19:12;;;;;;;;;32.00;30.00;;;;;48.72;26.92;98054.75;5951164;29;97310;-59
2024/03/03 09:22:15;;;;;;;;;29.00;26.75;;;;;47.43;28.76;98036.69;5957284;29;97604;-59
2024/03/03 09:25:19;;;;;;;;;29.33;28.00;;;;;47.21;30.11;98040.66;5972254;29;96447;-59
2024/03/03 09:28:22;;;;;;;;;28.00;26.40;;;;;48.25;30.56;98036.59;5966326;29;96366;-60
2024/03/03 09:31:28;;;;;;;;;30.50;29.00;;;;;49.47;28.88;98037.47;5970511;29;97441;-59
2024/03/03 09:34:31;;;;;;;;;30.00;28.00;;;;;50.40;27.63;98047.44;5980760;29;97563;-60
2024/03/03 09:37:34;;;;;;;;;27.60;25.80;;;;;50.84;27.06;98044.06;5980466;29;96732;-60
2024/03/03 09:40:38;;;;;;;;;24.20;24.00;;;;;51.38;27.16;98041.16;5984335;29;97681;-60
2024/03/03 09:43:44;;;;;;;;;25.60;24.00;;;;;51.23;25.73;98041.38;5977440;29;96368;-60
2024/03/03 09:46:49;;;;;;;;;19.00;19.00;;;;;51.83;27.30;98042.84;5979083;29;96686;-59
2024/03/03 09:49:55;;;;;;;;;20.40;19.40;;;;;52.14;24.72;98035.28;5973792;29;96720;-59
2024/03/03 09:53:00;;;;;;;;;19.40;18.00;;;;;52.52;25.22;98039.44;5970926;29;97534;-60
2024/03/03 09:56:07;;;;;;;;;19.50;17.50;;;;;51.67;24.00;98031.28;5968447;29;96711;-59
2024/03/03 09:59:11;;;;;;;;;15.00;15.00;;;;;50.05;26.49;98023.97;5977377;29;97051;-60
2024/03/03 10:02:18;;;;;;;;;16.00;15.00;;;;;50.87;26.06;98022.97;5979439;29;96750;-59
2024/03/03 10:05:29;;;;;;;;;19.00;17.40;;;;;51.08;24.31;98021.47;5977452;29;96387;-61
2024/03/03 10:08:33;;;;;;;;;16.67;15.00;;;;;51.24;25.64;98027.81;5971581;29;96605;-60
2024/03/03 10:11:37;;;;;;;;;16.00;15.00;;;;;52.08;25.19;98012.25;5971364;29;97102;-59
2024/03/03 10:14:42;;;;;;;;;16.00;14.60;;;;;53.02;24.64;98011.25;5965754;29;96527;-60
2024/03/03 10:17:46;;;;;;;;;17.25;16.00;;;;;52.89;24.77;98016.03;5971240;29;96691;-60
2024/03/03 10:20:49;;;;;;;;;19.00;17.00;;;;;53.08;23.97;98005.50;5970583;29;97190;-60
2024/03/03 10:23:52;;;;;;;;;13.60;13.00;;;;;52.88;23.76;98015.25;5968725;29;96775;-60
2024/03/03 10:26:57;;;;;;;;;15.00;13.60;;;;;52.63;23.35;97984.72;5975150;29;96427;-60
2024/03/03 10:30:04;;;;;;;;;16.00;15.00;;;;;52.54;24.52;98010.91;5976476;29;96390;-61
2024/03/03 10:33:09;;;;;;;;;13.00;12.00;;;;;52.94;23.81;98009.44;5976167;29;96507;-60
2024/03/03 10:36:12;;;;;;;;;13.75;13.25;;;;;51.27;24.29;97993.06;5978014;29;96447;-60
2024/03/03 10:39:17;;;;;;;;;13.00;12.00;;;;;50.69;23.58;97981.09;5965833;29;96327;-60
2024/03/03 10:42:21;;;;;;;;;14.00;13.00;;;;;51.09;24.85;97985.72;5959921;29;96469;-61
2024/03/03 10:45:24;;;;;;;;;12.60;11.60;;;;;51.34;24.39;97983.19;5959433;29;96659;-61
2024/03/03 10:48:29;;;;;;;;;15.00;13.50;;;;;51.89;24.06;97977.50;5976155;29;96340;-60
2024/03/03 10:51:33;;;;;;;;;12.60;12.00;;;;;52.52;23.94;97968.28;5976606;29;96365;-56
2024/03/03 10:54:37;;;;;;;;;13.00;13.00;;;;;52.51;24.10;97960.94;5979588;29;97006;-55
2024/03/03 10:57:43;;;;;;;;;13.40;13.00;;;;;51.99;24.54;97960.00;5978658;29;96294;-55
2024/03/03 11:00:47;;;;;;;;;14.60;14.00;;;;;51.82;25.29;97957.91;5977869;29;97215;-54
2024/03/03 11:03:53;;;;;;;;;15.60;14.60;;;;;51.54;23.73;97954.25;5977368;29;96396;-55
2024/03/03 11:06:59;;;;;;;;;12.25;11.00;;;;;50.50;23.85;97957.03;5977968;29;96934;-55
2024/03/03 11:10:02;;;;;;;;;14.80;14.00;;;;;50.83;24.66;97952.78;5974224;29;96409;-56
2024/03/03 11:13:07;;;;;;;;;10.25;10.00;;;;;50.01;23.61;97940.28;5977188;29;96359;-56
2024/03/03 11:16:13;;;;;;;;;14.80;12.00;;;;;49.79;25.31;97943.78;5964580;29;96409;-57
2024/03/03 11:19:24;;;;;;;;;17.00;16.00;;;;;49.39;25.88;97936.09;5977009;29;97154;-55
2024/03/03 11:22:35;;;;;;;;;15.00;14.00;;;;;47.48;27.17;97936.06;5976763;29;96348;-55
2024/03/03 11:25:46;;;;;;;;;14.20;14.00;;;;;44.96;28.21;97919.44;5977521;29;96476;-56
2024/03/03 11:28:53;;;;;;;;;14.40;14.00;;;;;42.05;32.58;97916.59;5978013;29;96442;-55
2024/03/03 11:31:56;;;;;;;;;15.60;14.20;;;;;41.52;34.63;97906.97;5961696;29;96491;-55
2024/03/03 11:35:03;;;;;;;;;17.00;16.00;;;;;42.66;33.49;97901.16;5976676;29;96274;-54
2024/03/03 11:38:08;;;;;;;;;17.00;15.50;;;;;42.42;35.20;97905.66;5978937;29;96284;-54
2024/03/03 11:41:11;;;;;;;;;16.00;16.00;;;;;40.76;35.54;97881.31;5980222;29;97521;-53
2024/03/03 11:44:49;;;;;;;;;16.20;16.20;;;;;38.14;38.92;97896.50;5979917;29;96897;-54
2024/03/03 11:47:53;;;;;;;;;17.40;15.40;;;;;34.96;45.98;97905.41;5980379;29;96335;-53
2024/03/03 11:51:24;;;;;;;;;17.00;16.00;;;;;33.24;50.34;97905.88;5979517;29;96862;-54
2024/03/03 11:54:31;;;;;;;;;16.00;15.00;;;;;32.56;54.22;97907.53;5980652;29;96940;-56
2024/03/03 11:57:34;;;;;;;;;19.00;16.00;;;;;32.56;55.45;97890.78;5981190;29;96442;-55
2024/03/03 12:00:38;;;;;;;;;13.20;12.80;;;;;32.34;52.64;97889.09;5981094;29;96448;-55
2024/03/03 12:03:41;;;;;;;;;12.25;12.25;;;;;30.87;56.98;97901.97;5980664;29;96378;-55
2024/03/03 12:06:46;;;;;;;;;14.00;12.40;;;;;29.78;59.71;97898.34;5980518;29;96258;-54
2024/03/03 12:09:49;;;;;;;;;15.40;13.00;;;;;29.70;63.73;97891.88;5980823;29;97015;-55
2024/03/03 12:12:54;;;;;;;;;17.00;15.00;;;;;31.18;61.71;97897.19;5981202;29;96365;-54
2024/03/03 12:15:57;;;;;;;;;12.60;11.60;;;;;33.16;55.57;97889.50;5980337;29;96517;-55
2024/03/03 12:19:01;;;;;;;;;14.40;12.00;;;;;35.06;50.74;97882.16;5980877;29;96942;-55
2024/03/03 12:22:07;;;;;;;;;15.00;13.67;;;;;36.59;45.30;97882.59;5980028;29;96712;-55
2024/03/03 12:25:11;;;;;;;;;13.00;13.00;;;;;36.64;43.97;97875.75;5980139;29;96371;-55
2024/03/03 12:28:14;;;;;;;;;14.00;12.80;;;;;37.36;42.93;97877.22;5979486;29;96915;-54
2024/03/03 12:31:18;;;;;;;;;11.00;10.00;;;;;35.62;44.20;97855.81;5980244;29;96877;-53
2024/03/03 12:34:21;;;;;;;;;11.00;10.00;;;;;35.58;45.77;97877.44;5980054;29;96376;-53
2024/03/03 12:37:26;;;;;;;;;12.00;11.60;;;;;35.18;46.55;97868.53;5979967;29;96584;-54
2024/03/03 12:40:29;;;;;;;;;12.00;10.00;;;;;34.91;49.70;97853.44;5980207;29;96285;-55
2024/03/03 12:43:34;;;;;;;;;13.20;11.60;;;;;34.39;52.27;97846.00;5979379;29;97004;-54
2024/03/03 12:46:40;;;;;;;;;14.00;13.40;;;;;33.38;50.21;97852.03;5977462;29;96367;-56
2024/03/03 12:49:44;;;;;;;;;10.00;10.00;;;;;32.31;52.56;97850.78;5977352;29;97414;-54
2024/03/03 12:52:49;;;;;;;;;11.00;10.60;;;;;30.82;56.67;97848.63;5974988;29;96301;-54
2024/03/03 12:55:53;;;;;;;;;9.40;9.00;;;;;29.90;58.02;97842.63;5979750;29;97451;-53
2024/03/03 12:58:56;;;;;;;;;9.00;9.00;;;;;28.89;65.76;97842.34;5979998;29;96473;-55
2024/03/03 13:02:00;;;;;;;;;12.00;10.40;;;;;28.39;66.86;97849.66;5978415;29;96645;-56
2024/03/03 13:05:03;;;;;;;;;11.80;9.00;;;;;28.03;66.27;97825.88;5976502;29;96380;-54
2024/03/03 13:08:11;;;;;;;;;11.50;10.00;;;;;27.40;67.12;97833.44;5981860;29;96603;-54
2024/03/03 13:11:14;;;;;;;;;10.00;9.00;;;;;26.63;73.04;97841.22;5991344;29;96270;-55
2024/03/03 13:14:18;;;;;;;;;10.00;9.00;;;;;25.89;76.94;97834.25;5976229;29;96499;-57
2024/03/03 13:17:24;;;;;;;;;11.00;9.00;;;;;25.56;79.86;97803.22;5963952;29;96882;-57
2024/03/03 13:20:28;;;;;;;;;10.60;10.20;;;;;26.19;83.30;97829.25;5956838;29;97498;-57
2024/03/03 13:23:32;;;;;;;;;11.00;9.00;;;;;26.34;84.96;97834.03;5955182;29;96541;-56
2024/03/03 13:26:36;;;;;;;;;13.00;12.00;;;;;26.32;82.88;97830.03;5962984;29;96427;-57
2024/03/03 13:29:39;;;;;;;;;12.60;12.00;;;;;26.38;86.75;97817.59;5951117;29;96991;-57
2024/03/03 13:32:42;;;;;;;;;13.00;12.00;;;;;26.54;89.99;97815.66;5978606;29;96293;-57
2024/03/03 13:35:45;;;;;;;;;14.00;13.20;;;;;26.69;84.37;97812.16;5977128;29;96380;-57
2024/03/03 13:38:50;;;;;;;;;11.60;11.00;;;;;26.94;87.72;97819.19;5972887;29;96532;-58
2024/03/03 13:41:53;;;;;;;;;14.00;12.60;;;;;26.95;80.08;97814.47;5969710;29;96513;-57
2024/03/03 13:44:57;;;;;;;;;10.80;10.00;;;;;26.75;80.36;97816.28;5965044;29;96990;-58
2024/03/03 13:48:00;;;;;;;;;9.00;9.00;;;;;26.59;83.91;97804.34;5974364;29;96526;-57
2024/03/03 13:51:04;;;;;;;;;10.00;9.00;;;;;26.54;82.70;97813.72;5961100;29;96504;-60
2024/03/03 13:54:13;;;;;;;;;7.00;7.00;;;;;26.36;79.97;97809.66;5958436;29;97210;-59
2024/03/03 13:57:16;;;;;;;;;8.50;7.50;;;;;25.95;76.70;97818.25;5973071;29;96855;-59
2024/03/03 14:00:21;;;;;;;;;8.60;8.00;;;;;24.93;79.87;97811.75;5973143;29;97462;-60
2024/03/03 14:03:28;;;;;;;;;9.40;9.00;;;;;24.73;82.76;97809.81;5968630;29;96699;-60